• Join FlightAware (Why Join?)
  • Login
  • US Flag 
09:58PM EDT


 

Airport Tracker/Info


-or-


 

Live Flight TrackerFlight Track Log ✈ SWA3943 ✈ 10-Apr-2013 ✈ KBHM - KBWI

Flight Track Log - Related Links

Times and Time Zones

All times are in EDT time to prevent confusion due to time zone crossing. See the SWA3943 flight status page for this flight to view local times or setup timezone preferences in your user account.

Time Position Orientation Groundspeed Altitude Reporting Facility
EDT Latitude Longitude Course Direction KTS MPH feet Rate Location/Type
08:17PM 33.5225 -86.8347 239° Southwest 157 181 3,600  Level Atlanta Center
08:18PM 33.4881 -86.7911 133° Southeast 116 133 6,000 2,760 Climbing Atlanta Center
08:19PM 33.4942 -86.6992 85° East 157 181 9,200 2,940 Climbing Atlanta Center
08:20PM 33.5006 -86.5922 86° East 240 276 11,900 3,000 Climbing Atlanta Center
08:21PM 33.5092 -86.4753 85° East 313 360 15,200 3,180 Climbing Atlanta Center
08:22PM 33.5203 -86.3386 84° East 336 387 18,300 3,000 Climbing Atlanta Center
08:23PM 33.5267 -86.2092 87° East 368 423 21,200 2,340 Climbing Atlanta Center
08:24PM 33.5375 -86.0700 85° East 400 460 23,000 1,320 Climbing Atlanta Center
08:25PM 33.5461 -85.9206 86° East 424 488 23,900 1,440 Climbing Atlanta Center
08:26PM 33.5775 -85.7717 76° East 454 522 25,900 1,920 Climbing Atlanta Center
08:27PM 33.6089 -85.6128 77° East 476 548 27,800 1,680 Climbing Atlanta Center
08:28PM 33.6211 -85.4683 84° East 484 557 29,300 1,620 Climbing Atlanta Center
08:29PM 33.6231 -85.2986 89° East 489 563 31,100 1,800 Climbing Atlanta Center
08:30PM 33.6244 -85.1364 89° East 489 563 33,000 900 Climbing Atlanta Center
08:31PM 33.6258 -84.9694 89° East 498 573 33,000 600 Level Atlanta Center
08:32PM 33.6269 -84.8022 89° East 498 573 34,300 1,440 Climbing Atlanta Center
08:33PM 33.6281 -84.6350 89° East 498 573 35,900 1,620 Climbing Atlanta Center
08:34PM 33.6267 -84.4578 90° East 493 567 37,600 1,380 Climbing Atlanta Center
08:35PM 33.6353 -84.2933 86° East 493 567 38,700 660 Climbing Atlanta Center
08:36PM 33.6544 -84.1486 81° East 493 567 39,000 120 Climbing Atlanta Center
08:37PM 33.7317 -84.0264 53° Northeast 456 525 39,000  Level Atlanta Center
08:38PM 33.8108 -83.9039 52° Northeast 456 525 39,000  Level Atlanta Center
08:39PM 33.8878 -83.7786 53° Northeast 462 532 39,000  Level Atlanta Center
08:40PM 33.9647 -83.6581 52° Northeast 462 532 39,000  Level Atlanta Center
08:41PM 34.0417 -83.5350 53° Northeast 462 532 39,000  Level Atlanta Center
08:42PM 34.1286 -83.3989 52° Northeast 457 526 39,000  Level Atlanta Center
08:43PM 34.2050 -83.2753 53° Northeast 457 526 39,000 -300 Level Atlanta Center
08:44PM 34.2836 -83.1489 53° Northeast 457 526 38,500 -840 Descending Atlanta Center
08:45PM 34.3619 -83.0247 53° Northeast 457 526 37,400 -780 Descending Atlanta Center
08:46PM 34.4381 -82.8978 54° Northeast 457 526 37,000 -240 Descending Atlanta Center
08:47PM 34.5161 -82.7733 53° Northeast 465 535 37,000  Level Atlanta Center
08:48PM 34.5961 -82.6458 53° Northeast 465 535 37,000  Level Atlanta Center
08:49PM 34.6739 -82.5208 53° Northeast 465 535 37,000  Level Atlanta Center
08:50PM 34.7517 -82.3931 53° Northeast 465 535 37,000  Level Atlanta Center
08:51PM 34.8292 -82.2650 54° Northeast 465 535 37,000  Level Atlanta Center
08:52PM 34.9067 -82.1417 53° Northeast 465 535 37,000  Level Atlanta Center
08:53PM 34.9839 -82.0133 54° Northeast 470 541 37,000  Level Atlanta Center
08:54PM 35.0486 -81.9025 54° Northeast 465 535 37,000  Level Atlanta Center
08:55PM 35.1192 -81.7661 58° Northeast 470 541 37,000  Level Atlanta Center
08:56PM 35.1878 -81.6347 57° Northeast 465 535 37,000  Level Atlanta Center
08:57PM 35.2581 -81.5028 57° Northeast 465 535 37,000  Level Atlanta Center
08:58PM 35.3283 -81.3683 57° Northeast 465 535 37,000  Level Atlanta Center
08:59PM 35.3983 -81.2336 57° Northeast 465 535 37,000  Level Atlanta Center
09:00PM 35.4661 -81.0961 59° Northeast 465 535 37,000  Level Atlanta Center
09:01PM 35.5400 -80.9608 56° Northeast 472 543 37,000  Level Atlanta Center
09:02PM 35.6094 -80.8278 57° Northeast 466 536 37,000  Level Atlanta Center
09:03PM 35.6769 -80.6950 58° Northeast 466 536 37,000  Level Atlanta Center
09:04PM 35.7442 -80.5642 58° Northeast 461 531 37,000  Level Atlanta Center
09:05PM 35.8114 -80.4358 57° Northeast 461 531 37,000  Level Atlanta Center
09:07PM 35.9836 -80.0944 58° Northeast 445 512 37,000  Level Washington Center
09:08PM 36.0444 -79.9797 57° Northeast 439 505 37,000  Level Washington Center
09:09PM 36.1200 -79.8503 54° Northeast 445 512 37,000  Level Washington Center
09:10PM 36.2000 -79.7053 56° Northeast 460 529 37,000 -60 Level Washington Center
09:11PM 36.2756 -79.5700 55° Northeast 471 542 36,900 -540 Descending Washington Center
09:12PM 36.3467 -79.4447 55° Northeast 461 531 36,000 -900 Descending Washington Center
09:13PM 36.4108 -79.3267 56° Northeast 455 524 35,100 -900 Descending Washington Center
09:14PM 36.4836 -79.1931 56° Northeast 455 524 34,200 -960 Descending Washington Center
09:15PM 36.5606 -79.0675 53° Northeast 460 529 33,200 -1,020 Descending Washington Center
09:16PM 36.6353 -78.9336 55° Northeast 465 535 32,200 -1,500 Descending Washington Center
09:17PM 36.7167 -78.7764 57° Northeast 477 549 30,200 -1,620 Descending Washington Center
09:18PM 36.7933 -78.6422 54° Northeast 477 549 29,000 -600 Descending Washington Center
09:19PM 36.8544 -78.5250 57° Northeast 472 543 29,000 -540 Level Washington Center
09:20PM 36.9222 -78.4031 55° Northeast 446 513 28,000 -540 Descending Washington Center
09:21PM 36.9831 -78.2908 56° Northeast 419 482 28,000  Level Washington Center
09:22PM 37.0528 -78.1631 56° Northeast 398 458 28,000 -180 Level Washington Center
09:23PM 37.1069 -78.0658 55° Northeast 393 452 27,700 -660 Descending Washington Center
09:24PM 37.1678 -77.9481 57° Northeast 393 452 26,700 -1,020 Descending Washington Center
09:25PM 37.2283 -77.8350 56° Northeast 393 452 25,700 -1,020 Descending Washington Center
09:26PM 37.2867 -77.7244 56° Northeast 393 452 24,700 -1,020 Descending Washington Center
09:27PM 37.3447 -77.6164 56° Northeast 393 452 23,700 -900 Descending Washington Center
09:28PM 37.4031 -77.5081 56° Northeast 388 447 23,000 -360 Descending Washington Center
09:29PM 37.4589 -77.4022 56° Northeast 376 433 23,000 -240 Level Washington Center
09:31PM 37.6250 -77.2961 27° Northeast 334 384 22,400 -540 Descending Washington Center
09:32PM 37.7214 -77.2747 10° North 326 375 21,400 -1,020 Descending Washington Center
09:33PM 37.8133 -77.2556 North 333 383 20,400 -1,020 Descending Washington Center
09:34PM 37.9056 -77.2367 North 333 383 19,400 -1,020 Descending Washington Center
09:35PM 37.9975 -77.2175 North 333 383 18,400 -1,140 Descending Washington Center
09:36PM 38.0978 -77.1961 10° North 333 383 17,200 -1,140 Descending Washington Center
09:37PM 38.1856 -77.1794 North 328 377 16,200 -900 Descending Washington Center
09:38PM 38.2631 -77.1625 10° North 317 365 15,400 -600 Descending Washington Center
09:39PM 38.3569 -77.1567 North 312 359 15,000 -240 Descending Washington Center
09:40PM 38.4425 -77.1450 North 312 359 15,000  Level Washington Center
09:41PM 38.5281 -77.1469 359° North 312 359 15,000 -900 Level Washington Center
09:42PM 38.6092 -77.1672 349° North 301 346 13,300 -1,620 Descending Washington Center
09:43PM 38.6667 -77.1000 42° Northeast 336 387 11,900 -1,260 Descending Potomac TRACON
09:44PM 38.6833 -76.9833 80° East 334 384 10,900 -960 Descending Potomac TRACON
09:45PM 38.7000 -76.8667 80° East 335 386 10,000 -900 Descending Potomac TRACON
09:46PM 38.7000 -76.7500 90° East 325 374 9,100 -1,020 Descending Potomac TRACON
09:47PM 38.7500 -76.6500 57° Northeast 309 356 8,000 -1,260 Descending Potomac TRACON
09:48PM 38.7833 -76.5500 67° East 308 354 6,600 -1,020 Descending Potomac TRACON
09:49PM 38.8500 -76.5000 30° Northeast 265 305 6,000 -840 Descending Potomac TRACON
09:50PM 38.9000 -76.4500 38° Northeast 251 289 5,000 -960 Descending Potomac TRACON
09:51PM 38.9667 -76.4667 349° North 212 244 4,100 -960 Descending Potomac TRACON
09:52PM 39.0000 -76.5167 311° West 196 226 3,100 -600 Descending Potomac TRACON
09:53PM 39.0333 -76.5500 322° Northwest 166 191 3,000 -480 Descending Potomac TRACON
09:54PM 39.0833 -76.5833 333° Northwest 175 201 2,200 -900 Descending Potomac TRACON
09:55PM 39.1167 -76.6167 322° Northwest 154 177 1,300 -840 Descending Potomac TRACON
09:56PM 39.1500 -76.6500 322° Northwest 147 169 600 -720 Descending Potomac TRACON
09:58PM 39.1667 -76.6667 339° North  Level FlightAware Approximate
10:05PM 39.1754 -76.6683 339° North  Level Estimated
10:06PM 39.1754 -76.6683 339° North  Level Estimated